createdAt,value
2023-12-07T00:01:06.738Z,29.2
2023-12-07T00:07:00.633Z,26
2023-12-07T00:12:55.694Z,28.5
2023-12-07T00:18:48.799Z,29.5
2023-12-07T00:24:41.827Z,28.6
2023-12-07T00:30:34.140Z,26.2
2023-12-07T00:36:31.204Z,28.4
2023-12-07T00:42:27.392Z,26.4
2023-12-07T00:48:23.640Z,24.7
2023-12-07T00:54:16.833Z,23.3
2023-12-07T01:00:11.628Z,24.4
2023-12-07T01:06:06.558Z,28.1
2023-12-07T01:12:00.234Z,24.5
2023-12-07T01:17:57.389Z,21.7
2023-12-07T01:24:20.694Z,24.7
2023-12-07T01:30:13.920Z,24.6
2023-12-07T01:36:08.912Z,26.5
2023-12-07T01:42:00.816Z,25.3
2023-12-07T01:47:54.492Z,26.5
2023-12-07T01:53:49.573Z,26.1
2023-12-07T01:59:42.014Z,26.5
2023-12-07T02:05:34.300Z,24.6
2023-12-07T02:11:28.321Z,29.3
2023-12-07T02:17:21.190Z,24.9
2023-12-07T02:23:13.342Z,24.4
2023-12-07T02:29:05.884Z,24.2
2023-12-07T02:34:58.620Z,24.1
2023-12-07T02:40:51.212Z,23.3
2023-12-07T02:46:44.424Z,28.4
2023-12-07T02:52:37.323Z,26.9
2023-12-07T02:58:30.759Z,26
2023-12-07T03:04:24.358Z,24
2023-12-07T03:10:17.402Z,23.2
2023-12-07T03:16:09.353Z,24.7
2023-12-07T03:22:02.187Z,26
2023-12-07T03:27:55.324Z,26.8
2023-12-07T03:34:56.712Z,30.2
2023-12-07T03:40:48.718Z,25.5
2023-12-07T03:46:45.059Z,28.1
2023-12-07T03:52:37.359Z,25.9
2023-12-07T03:58:29.361Z,28.9
2023-12-07T04:04:22.096Z,26.4
2023-12-07T04:10:15.310Z,28.8
2023-12-07T04:16:10.607Z,29.4
2023-12-07T04:22:03.756Z,28.6
2023-12-07T04:27:55.821Z,28.1
2023-12-07T04:33:50.736Z,29.7
2023-12-07T04:39:43.842Z,29.9
2023-12-07T04:45:36.534Z,37.5
2023-12-07T04:51:30.067Z,37.5
2023-12-07T04:58:32.284Z,39.8
2023-12-07T05:05:33.225Z,39.1
2023-12-07T05:11:25.452Z,37.4
2023-12-07T05:17:17.812Z,36.2
2023-12-07T05:23:10.683Z,37.5
2023-12-07T05:29:03.121Z,39.9
2023-12-07T05:34:56.470Z,42.5
2023-12-07T05:40:48.851Z,44.3
2023-12-07T05:46:41.829Z,42.4
2023-12-07T05:52:34.974Z,40
2023-12-07T05:58:27.083Z,42.7
2023-12-07T06:04:19.891Z,45
2023-12-07T06:10:12.411Z,42.1
2023-12-07T06:16:05.359Z,43.1
2023-12-07T06:21:57.861Z,44.6
2023-12-07T06:27:51.260Z,43.6
2023-12-07T06:33:45.353Z,43.5
2023-12-07T06:39:37.493Z,44.8
2023-12-07T06:45:29.876Z,44.8
2023-12-07T06:51:22.017Z,46.2
2023-12-07T06:57:14.593Z,46.7
2023-12-07T07:03:07.565Z,52.5
2023-12-07T07:09:05.180Z,49.3
2023-12-07T07:14:58.068Z,50.4
2023-12-07T07:20:50.147Z,51.2
2023-12-07T07:26:43.029Z,51.1
2023-12-07T07:32:35.650Z,47.5
2023-12-07T07:38:28.656Z,46.4
2023-12-07T07:44:21.432Z,48
2023-12-07T07:50:13.936Z,48.6
2023-12-07T07:56:06.312Z,47
2023-12-07T08:01:57.362Z,50.6
2023-12-07T08:07:50.013Z,47.4
2023-12-07T08:13:42.311Z,49.8
2023-12-07T08:19:35.088Z,50.2
2023-12-07T08:25:27.966Z,49.1
2023-12-07T08:31:21.299Z,49.5
2023-12-07T08:37:14.906Z,51.3
2023-12-07T08:43:08.379Z,51.5
2023-12-07T08:50:10.827Z,52.3
2023-12-07T08:56:01.896Z,53.7
2023-12-07T09:01:54.557Z,51.1
2023-12-07T09:07:48.173Z,48.7
2023-12-07T09:13:42.107Z,48.6
2023-12-07T09:19:34.859Z,45.9
2023-12-07T09:25:28.762Z,46.4
2023-12-07T09:32:40.999Z,41.9
2023-12-07T09:38:33.839Z,41.1
2023-12-07T09:44:27.217Z,43.3
2023-12-07T09:50:39.724Z,40.8
2023-12-07T10:00:05.342Z,42.1
2023-12-07T10:05:57.623Z,42.2
2023-12-07T10:11:50.382Z,41.4
2023-12-07T10:17:44.272Z,40.3
2023-12-07T10:23:38.843Z,41.9
2023-12-07T10:29:39.036Z,38.6
2023-12-07T10:35:30.780Z,36.9
2023-12-07T10:41:26.191Z,34
2023-12-07T10:47:18.745Z,33.1
2023-12-07T10:53:11.720Z,31.4
2023-12-07T10:59:04.484Z,29.9
2023-12-07T11:04:58.614Z,30
2023-12-07T11:10:49.404Z,29.3
2023-12-07T11:16:42.181Z,28.2
2023-12-07T11:22:36.732Z,31.3
2023-12-07T11:28:30.258Z,29.1
2023-12-07T11:34:22.558Z,28.5
2023-12-07T11:40:15.488Z,28.4
2023-12-07T11:46:08.619Z,25.6
2023-12-07T11:51:59.544Z,24.3
2023-12-07T11:57:51.458Z,25
2023-12-07T12:03:43.960Z,26.5
2023-12-07T12:09:41.232Z,25.5
2023-12-07T12:15:35.496Z,25.4
2023-12-07T12:21:28.437Z,25.5
2023-12-07T12:27:21.370Z,25.4
2023-12-07T12:33:14.192Z,25.3
2023-12-07T12:39:06.961Z,26.5
2023-12-07T12:45:04.487Z,24.5
2023-12-07T12:50:57.312Z,25.5
2023-12-07T12:56:51.430Z,27
2023-12-07T13:02:44.084Z,24.3
2023-12-07T13:08:36.724Z,25.1
2023-12-07T13:14:28.363Z,27
2023-12-07T13:20:23.031Z,28.8
2023-12-07T13:26:16.018Z,31.1
2023-12-07T13:32:08.869Z,27.3
2023-12-07T13:38:01.126Z,27.8
2023-12-07T13:43:55.892Z,29.2
2023-12-07T13:49:49.189Z,29.8
2023-12-07T13:55:41.241Z,27.6
2023-12-07T14:01:35.242Z,28.1
2023-12-07T14:07:29.972Z,27.7
2023-12-07T14:13:23.329Z,28.7
2023-12-07T14:19:20.281Z,27
2023-12-07T14:25:12.081Z,28.3
2023-12-07T14:31:04.548Z,29
2023-12-07T14:36:56.776Z,33.6
2023-12-07T14:42:49.004Z,32.7
2023-12-07T14:48:41.189Z,30.6
2023-12-07T14:54:36.314Z,33.5
2023-12-07T15:00:28.648Z,32
2023-12-07T15:06:21.294Z,31.8
2023-12-07T15:12:15.513Z,33
2023-12-07T15:18:07.976Z,33.4
2023-12-07T15:24:02.296Z,33.9
2023-12-07T15:29:54.732Z,33.8
2023-12-07T15:35:46.418Z,30.5
2023-12-07T15:41:37.461Z,28.7
2023-12-07T15:47:32.731Z,30.3
2023-12-07T15:53:24.948Z,29.7
2023-12-07T15:59:16.374Z,30.4
2023-12-07T16:05:08.500Z,29.1
2023-12-07T16:11:00.826Z,28.2
2023-12-07T16:16:53.059Z,28.8
2023-12-07T16:22:44.978Z,28.4
2023-12-07T16:28:37.320Z,28.7
2023-12-07T16:34:29.595Z,29.8
2023-12-07T16:40:25.203Z,27.6
2023-12-07T16:46:18.388Z,28.1
2023-12-07T16:52:12.097Z,29.3
2023-12-07T16:58:05.256Z,30.6
2023-12-07T17:03:59.031Z,28.8
2023-12-07T17:09:56.692Z,29
2023-12-07T17:15:49.033Z,28.9
2023-12-07T17:21:45.749Z,31.1
2023-12-07T17:27:39.066Z,32.1
2023-12-07T17:33:32.311Z,34
2023-12-07T17:39:29.767Z,32.3
2023-12-07T17:45:21.649Z,33.5
2023-12-07T17:51:16.224Z,33.3
2023-12-07T17:57:07.293Z,30
2023-12-07T18:02:59.907Z,30.8
2023-12-07T18:08:52.191Z,32.6
2023-12-07T18:14:43.601Z,32.7
2023-12-07T18:20:36.113Z,32.4
2023-12-07T18:26:28.126Z,33.7
2023-12-07T18:32:20.797Z,33.4
2023-12-07T18:38:12.832Z,32.8
2023-12-07T18:44:05.421Z,33.1
2023-12-07T18:49:57.425Z,32
2023-12-07T18:55:49.049Z,35
2023-12-07T19:01:40.469Z,37.4
2023-12-07T19:07:32.913Z,37.3
2023-12-07T19:13:23.415Z,38.6
2023-12-07T19:19:16.153Z,38.8
2023-12-07T19:25:08.253Z,41.5
2023-12-07T19:31:00.339Z,44.2
2023-12-07T19:36:52.596Z,43.7
2023-12-07T19:42:47.176Z,40.8
2023-12-07T19:48:40.131Z,40.2
2023-12-07T19:54:37.896Z,41
2023-12-07T20:00:28.849Z,39.2
2023-12-07T20:06:40.940Z,39.4
2023-12-07T20:12:32.060Z,40.3
2023-12-07T20:18:24.928Z,38.7
2023-12-07T20:24:17.572Z,36.5
2023-12-07T20:30:10.631Z,36.8
2023-12-07T20:36:02.957Z,36
2023-12-07T20:41:54.882Z,35.6
2023-12-07T20:47:47.522Z,38.7
2023-12-07T20:53:39.827Z,37.8
2023-12-07T20:59:32.414Z,38.6
2023-12-07T21:05:24.241Z,37.2
2023-12-07T21:11:16.021Z,37.6
2023-12-07T21:17:08.127Z,35.3
2023-12-07T21:22:59.591Z,34.8
2023-12-07T21:28:49.850Z,35.1
2023-12-07T21:34:41.762Z,35.5
2023-12-07T21:40:33.982Z,33.5
2023-12-07T21:46:23.961Z,31.5
2023-12-07T21:52:15.439Z,33.7
2023-12-07T21:58:07.752Z,34.5
2023-12-07T22:03:59.352Z,33.2
2023-12-07T22:09:51.383Z,34.7
2023-12-07T22:15:43.696Z,34.2
2023-12-07T22:21:35.492Z,32.1
2023-12-07T22:27:28.233Z,30.1
2023-12-07T22:33:20.824Z,31.5
2023-12-07T22:39:13.022Z,35.2
2023-12-07T22:45:06.518Z,32.1
2023-12-07T22:50:58.280Z,31.3
2023-12-07T22:56:50.538Z,29.6
2023-12-07T23:02:42.888Z,32.5
2023-12-07T23:08:34.519Z,32.1
2023-12-07T23:14:26.395Z,31.4
2023-12-07T23:20:20.247Z,30.9
2023-12-07T23:26:11.548Z,30.6
2023-12-07T23:32:01.783Z,30.3
2023-12-07T23:37:51.465Z,30.4
2023-12-07T23:43:46.169Z,28.9
2023-12-07T23:49:39.935Z,28.9
2023-12-07T23:55:31.673Z,29.1
